Time,TemperatureF,DewpointF,PressureIn,WindDirection,WindDirectionDegrees,WindSpeedMPH,WindSpeedGustMPH,Humidity,HourlyPrecipIn,Conditions,Clouds,dailyrainin,SoftwareType,DateUTC
2013-02-21 00:07:00,39.6,39.1,29.96,NNE,22,1.1,-999.0,98,-99.99,,,0.00,Acu-Link.com,2013-02-21 08:07:00,
2013-02-21 00:23:00,40.3,39.8,29.96,South,180,0.0,-999.0,98,-99.99,,,0.00,Acu-Link.com,2013-02-21 08:23:00,
2013-02-21 00:38:00,40.5,40.0,29.96,SSE,157,1.7,-999.0,98,-99.99,,,0.00,Acu-Link.com,2013-02-21 08:38:00,
2013-02-21 00:54:00,40.8,40.3,29.98,SW,225,0.0,-999.0,98,-99.99,,,0.00,Acu-Link.com,2013-02-21 08:54:00,
2013-02-21 01:21:00,41.0,40.5,29.97,ESE,112,1.1,-999.0,98,-99.99,,,0.00,Acu-Link.com,2013-02-21 09:21:00,
2013-02-21 01:36:00,40.3,39.8,29.99,WNW,292,0.0,-999.0,98,-99.99,,,0.00,Acu-Link.com,2013-02-21 09:36:00,
2013-02-21 01:51:00,39.7,39.2,29.97,West,270,0.0,-999.0,98,-99.99,,,0.00,Acu-Link.com,2013-02-21 09:51:00,
2013-02-21 02:06:00,39.9,39.4,29.98,South,180,0.0,-999.0,98,-99.99,,,0.00,Acu-Link.com,2013-02-21 10:06:00,
2013-02-21 02:22:00,40.1,39.6,29.98,East,90,0.0,-999.0,98,-99.99,,,0.00,Acu-Link.com,2013-02-21 10:22:00,
2013-02-21 02:37:00,39.6,39.1,29.96,SE,135,0.0,-999.0,98,-99.99,,,0.00,Acu-Link.com,2013-02-21 10:37:00,
2013-02-21 02:52:00,39.7,39.2,29.98,South,180,1.7,-999.0,98,-99.99,,,0.01,Acu-Link.com,2013-02-21 10:52:00,
2013-02-21 03:07:00,40.1,39.6,29.97,ESE,112,0.0,-999.0,98,-99.99,,,0.01,Acu-Link.com,2013-02-21 11:07:00,
2013-02-21 03:23:00,40.1,39.6,29.96,SW,225,0.0,-999.0,98,-99.99,,,0.01,Acu-Link.com,2013-02-21 11:23:00,
2013-02-21 03:38:00,40.6,40.1,29.97,ESE,112,0.0,-999.0,98,-99.99,,,0.01,Acu-Link.com,2013-02-21 11:38:00,
2013-02-21 03:53:00,40.6,40.1,29.96,East,90,0.0,-999.0,98,-99.99,,,0.01,Acu-Link.com,2013-02-21 11:53:00,
2013-02-21 04:09:00,41.2,40.7,29.96,SSE,157,0.0,-999.0,98,-99.99,,,0.01,Acu-Link.com,2013-02-21 12:09:00,
2013-02-21 04:24:00,41.2,40.7,29.96,SE,135,1.7,-999.0,98,-99.99,,,0.01,Acu-Link.com,2013-02-21 12:24:00,
2013-02-21 04:39:00,41.7,41.2,29.96,SE,135,1.7,-999.0,98,-99.99,,,0.01,Acu-Link.com,2013-02-21 12:39:00,
2013-02-21 04:54:00,41.9,41.4,29.96,ESE,112,1.7,-999.0,98,-99.99,,,0.01,Acu-Link.com,2013-02-21 12:54:00,
2013-02-21 05:09:00,41.9,41.4,29.97,NNW,337,0.0,-999.0,98,-99.99,,,0.01,Acu-Link.com,2013-02-21 13:09:00,
2013-02-21 05:25:00,41.7,41.2,29.96,SSW,202,0.0,-999.0,98,-99.99,,,0.01,Acu-Link.com,2013-02-21 13:25:00,
2013-02-21 05:40:00,41.7,41.2,29.95,South,180,1.1,-999.0,98,-99.99,,,0.01,Acu-Link.com,2013-02-21 13:40:00,
2013-02-21 05:55:00,41.7,41.2,29.95,SE,135,1.7,-999.0,98,-99.99,,,0.01,Acu-Link.com,2013-02-21 13:55:00,
2013-02-21 06:10:00,42.1,41.6,29.97,South,180,0.0,-999.0,98,-99.99,,,0.01,Acu-Link.com,2013-02-21 14:10:00,
2013-02-21 06:26:00,42.1,41.6,29.95,WSW,247,0.0,-999.0,98,-99.99,,,0.01,Acu-Link.com,2013-02-21 14:26:00,
2013-02-21 06:41:00,41.7,41.2,29.96,West,270,0.0,-999.0,98,-99.99,,,0.01,Acu-Link.com,2013-02-21 14:41:00,
2013-02-21 06:57:00,41.5,41.0,29.96,SE,135,0.0,-999.0,98,-99.99,,,0.01,Acu-Link.com,2013-02-21 14:57:00,
2013-02-21 07:12:00,41.4,40.9,29.96,WSW,247,0.0,-999.0,98,-99.99,,,0.01,Acu-Link.com,2013-02-21 15:12:00,
2013-02-21 07:27:00,41.4,40.9,29.97,SSE,157,1.1,-999.0,98,-99.99,,,0.01,Acu-Link.com,2013-02-21 15:27:00,
2013-02-21 07:42:00,41.4,40.9,29.96,WNW,292,0.0,-999.0,98,-99.99,,,0.01,Acu-Link.com,2013-02-21 15:42:00,
2013-02-21 07:58:00,41.4,40.9,29.96,SSE,157,0.0,-999.0,98,-99.99,,,0.01,Acu-Link.com,2013-02-21 15:58:00,
2013-02-21 08:13:00,41.5,41.0,29.97,South,180,0.0,-999.0,98,-99.99,,,0.01,Acu-Link.com,2013-02-21 16:13:00,
2013-02-21 08:28:00,42.1,41.6,29.97,SE,135,0.0,-999.0,98,-99.99,,,0.01,Acu-Link.com,2013-02-21 16:28:00,
2013-02-21 08:44:00,42.4,41.9,29.97,ESE,112,0.0,-999.0,98,-99.99,,,0.01,Acu-Link.com,2013-02-21 16:44:00,
2013-02-21 08:59:00,42.8,42.3,29.98,WNW,292,2.2,-999.0,98,-99.99,,,0.01,Acu-Link.com,2013-02-21 16:59:00,
2013-02-21 09:14:00,42.4,41.9,29.97,SW,225,5.3,-999.0,98,-99.99,,,0.01,Acu-Link.com,2013-02-21 17:14:00,
2013-02-21 09:29:00,42.3,41.8,29.97,West,270,9.4,-999.0,98,-99.99,,,0.01,Acu-Link.com,2013-02-21 17:29:00,
2013-02-21 09:44:00,42.1,41.6,29.97,West,270,5.8,-999.0,98,-99.99,,,0.01,Acu-Link.com,2013-02-21 17:44:00,
2013-02-21 09:59:00,42.3,41.8,29.98,WNW,292,8.9,-999.0,98,-99.99,,,0.01,Acu-Link.com,2013-02-21 17:59:00,
2013-02-21 10:15:00,42.6,42.1,29.97,WNW,292,9.9,-999.0,98,-99.99,,,0.01,Acu-Link.com,2013-02-21 18:15:00,
2013-02-21 10:30:00,42.6,42.1,29.97,West,270,6.3,-999.0,98,-99.99,,,0.01,Acu-Link.com,2013-02-21 18:30:00,
2013-02-21 10:45:00,42.3,41.8,29.97,South,180,5.8,-999.0,98,-99.99,,,0.01,Acu-Link.com,2013-02-21 18:45:00,
2013-02-21 11:00:00,43.0,42.5,29.96,West,270,5.3,-999.0,98,-99.99,,,0.01,Acu-Link.com,2013-02-21 19:00:00,
2013-02-21 11:15:00,43.3,42.8,29.96,NW,315,10.9,-999.0,98,-99.99,,,0.01,Acu-Link.com,2013-02-21 19:15:00,
2013-02-21 11:30:00,43.7,43.2,29.96,West,270,6.3,-999.0,98,-99.99,,,0.01,Acu-Link.com,2013-02-21 19:30:00,
2013-02-21 11:46:00,43.9,43.4,29.96,West,270,7.8,-999.0,98,-99.99,,,0.01,Acu-Link.com,2013-02-21 19:46:00,
2013-02-21 12:01:00,44.1,43.6,29.95,WSW,247,9.4,-999.0,98,-99.99,,,0.01,Acu-Link.com,2013-02-21 20:01:00,
2013-02-21 12:16:00,43.7,43.2,29.96,West,270,6.8,-999.0,98,-99.99,,,0.01,Acu-Link.com,2013-02-21 20:16:00,
2013-02-21 12:31:00,43.5,43.0,29.96,West,270,8.9,-999.0,98,-99.99,,,0.01,Acu-Link.com,2013-02-21 20:31:00,
2013-02-21 12:46:00,43.7,43.2,29.95,WSW,247,7.8,-999.0,98,-99.99,,,0.01,Acu-Link.com,2013-02-21 20:46:00,
2013-02-21 13:01:00,43.2,42.7,29.95,WSW,247,3.7,-999.0,98,-99.99,,,0.01,Acu-Link.com,2013-02-21 21:01:00,
2013-02-21 13:17:00,43.7,43.2,29.96,West,270,6.3,-999.0,98,-99.99,,,0.01,Acu-Link.com,2013-02-21 21:17:00,
2013-02-21 13:32:00,43.7,43.2,29.94,West,270,8.9,-999.0,98,-99.99,,,0.01,Acu-Link.com,2013-02-21 21:32:00,
2013-02-21 13:47:00,43.9,43.4,29.94,West,270,6.8,-999.0,98,-99.99,,,0.01,Acu-Link.com,2013-02-21 21:47:00,
2013-02-21 14:02:00,44.4,43.9,29.94,WNW,292,4.2,-999.0,98,-99.99,,,0.01,Acu-Link.com,2013-02-21 22:02:00,
2013-02-21 14:17:00,44.8,44.3,29.94,West,270,6.3,-999.0,98,-99.99,,,0.01,Acu-Link.com,2013-02-21 22:17:00,
2013-02-21 14:33:00,44.4,43.9,29.93,WSW,247,4.7,-999.0,98,-99.99,,,0.01,Acu-Link.com,2013-02-21 22:33:00,
2013-02-21 14:48:00,44.4,43.9,29.94,West,270,7.8,-999.0,98,-99.99,,,0.01,Acu-Link.com,2013-02-21 22:48:00,
2013-02-21 15:03:00,44.2,43.7,29.94,WNW,292,4.7,-999.0,98,-99.99,,,0.01,Acu-Link.com,2013-02-21 23:03:00,
2013-02-21 15:18:00,44.4,43.9,29.94,NW,315,8.9,-999.0,98,-99.99,,,0.01,Acu-Link.com,2013-02-21 23:18:00,
2013-02-21 15:34:00,44.6,44.1,29.94,West,270,5.3,-999.0,98,-99.99,,,0.01,Acu-Link.com,2013-02-21 23:34:00,
2013-02-21 15:49:00,45.0,44.5,29.93,West,270,4.2,-999.0,98,-99.99,,,0.01,Acu-Link.com,2013-02-21 23:49:00,
2013-02-21 16:04:00,45.5,45.0,29.94,NW,315,1.7,-999.0,98,-99.99,,,0.01,Acu-Link.com,2013-02-22 00:04:00,
2013-02-21 16:19:00,45.1,44.6,29.94,West,270,3.2,-999.0,98,-99.99,,,0.01,Acu-Link.com,2013-02-22 00:19:00,
2013-02-21 16:35:00,45.1,44.6,29.95,East,90,0.0,-999.0,98,-99.99,,,0.01,Acu-Link.com,2013-02-22 00:35:00,
2013-02-21 16:50:00,45.0,44.5,29.96,SE,135,1.7,-999.0,98,-99.99,,,0.01,Acu-Link.com,2013-02-22 00:50:00,
2013-02-21 17:05:00,45.0,44.5,29.97,West,270,1.1,-999.0,98,-99.99,,,0.01,Acu-Link.com,2013-02-22 01:05:00,
2013-02-21 17:21:00,45.0,44.5,29.98,ESE,112,0.0,-999.0,98,-99.99,,,0.01,Acu-Link.com,2013-02-22 01:21:00,
2013-02-21 17:36:00,44.6,44.1,29.97,SW,225,0.0,-999.0,98,-99.99,,,0.01,Acu-Link.com,2013-02-22 01:36:00,
2013-02-21 17:51:00,43.9,43.4,29.98,WSW,247,1.7,-999.0,98,-99.99,,,0.01,Acu-Link.com,2013-02-22 01:51:00,
2013-02-21 18:07:00,43.3,42.8,29.98,SSE,157,0.0,-999.0,98,-99.99,,,0.01,Acu-Link.com,2013-02-22 02:07:00,
2013-02-21 18:22:00,43.0,42.5,29.98,SSE,157,1.7,-999.0,98,-99.99,,,0.01,Acu-Link.com,2013-02-22 02:22:00,
2013-02-21 18:37:00,43.0,42.5,29.98,South,180,1.7,-999.0,98,-99.99,,,0.01,Acu-Link.com,2013-02-22 02:37:00,
2013-02-21 18:52:00,43.0,42.5,29.98,SE,135,0.0,-999.0,98,-99.99,,,0.01,Acu-Link.com,2013-02-22 02:52:00,
2013-02-21 19:07:00,42.8,42.3,29.99,SSW,202,0.0,-999.0,98,-99.99,,,0.01,Acu-Link.com,2013-02-22 03:07:00,
2013-02-21 19:22:00,43.3,42.8,29.99,West,270,2.2,-999.0,98,-99.99,,,0.01,Acu-Link.com,2013-02-22 03:22:00,
2013-02-21 19:38:00,43.3,42.8,29.99,West,270,1.1,-999.0,98,-99.99,,,0.01,Acu-Link.com,2013-02-22 03:38:00,
2013-02-21 19:53:00,43.3,42.8,29.97,West,270,2.2,-999.0,98,-99.99,,,0.01,Acu-Link.com,2013-02-22 03:53:00,
2013-02-21 20:08:00,43.2,42.7,29.98,South,180,0.0,-999.0,98,-99.99,,,0.01,Acu-Link.com,2013-02-22 04:08:00,
2013-02-21 20:24:00,42.8,42.3,29.99,SE,135,0.0,-999.0,98,-99.99,,,0.01,Acu-Link.com,2013-02-22 04:24:00,
2013-02-21 20:39:00,42.6,42.1,30.00,SW,225,0.0,-999.0,98,-99.99,,,0.01,Acu-Link.com,2013-02-22 04:39:00,
2013-02-21 20:54:00,42.4,41.9,30.00,SW,225,0.0,-999.0,98,-99.99,,,0.01,Acu-Link.com,2013-02-22 04:54:00,
2013-02-21 21:10:00,42.3,41.8,30.02,ESE,112,0.0,-999.0,98,-99.99,,,0.01,Acu-Link.com,2013-02-22 05:10:00,
2013-02-21 21:25:00,42.3,41.8,30.01,SSW,202,0.0,-999.0,98,-99.99,,,0.01,Acu-Link.com,2013-02-22 05:25:00,
2013-02-21 21:40:00,42.3,41.8,30.02,WNW,292,0.0,-999.0,98,-99.99,,,0.01,Acu-Link.com,2013-02-22 05:40:00,
2013-02-21 21:55:00,42.1,41.6,30.00,WNW,292,0.0,-999.0,98,-99.99,,,0.01,Acu-Link.com,2013-02-22 05:55:00,
2013-02-21 22:11:00,42.1,41.6,30.00,West,270,0.0,-999.0,98,-99.99,,,0.01,Acu-Link.com,2013-02-22 06:11:00,
2013-02-21 22:26:00,41.7,41.2,29.99,East,90,0.0,-999.0,98,-99.99,,,0.01,Acu-Link.com,2013-02-22 06:26:00,
2013-02-21 22:41:00,41.7,41.2,29.99,South,180,0.0,-999.0,98,-99.99,,,0.01,Acu-Link.com,2013-02-22 06:41:00,
2013-02-21 22:57:00,41.5,41.0,29.99,North,0,0.0,-999.0,98,-99.99,,,0.01,Acu-Link.com,2013-02-22 06:57:00,
2013-02-21 23:12:00,42.3,41.8,29.99,SSW,202,1.1,-999.0,98,-99.99,,,0.01,Acu-Link.com,2013-02-22 07:12:00,
2013-02-21 23:27:00,42.6,42.1,29.99,West,270,4.2,-999.0,98,-99.99,,,0.01,Acu-Link.com,2013-02-22 07:27:00,
2013-02-21 23:42:00,43.0,42.5,29.98,West,270,3.7,-999.0,98,-99.99,,,0.01,Acu-Link.com,2013-02-22 07:42:00,
2013-02-21 23:58:00,43.2,42.7,29.98,West,270,6.3,-999.0,98,-99.99,,,0.01,Acu-Link.com,2013-02-22 07:58:00,